Corolla, North Carolina
Current Conditions -  °F | °C
As of 2:55 AM on Wednesday 22 Oct 2014 (Local Time) from KONX Reporting Station
Overcast Overcast  
Wind Chill: 57°   Ceiling: 1500
Heat Index: 57°   Visibility: 10mi
Dew Point: 53°   Wind: 6mph
Humidity: 88%   Direction: 270°W
Pressure: 29.83"   Gusts: NA
Location:  36.38°N, 75.83°W
Report Text: KONX 220655Z AUTO 27005KT 10SM BKN015 BKN048 OVC120 14/12 A2983 RMK AO2 T01380119
Loading
Personal Weather Stations






























Interactive Weather Map New forecast layout! Learn more

10-Day Weather Forecast

Advertisements
Track Severe Weather on mobile